createdAt,value
2022-10-18T00:00:49.298Z,63.58
2022-10-18T00:03:16.632Z,63.84
2022-10-18T00:05:43.902Z,63.31
2022-10-18T00:08:11.240Z,63.72
2022-10-18T00:10:39.931Z,63.10
2022-10-18T00:13:07.291Z,63.23
2022-10-18T00:15:34.656Z,63.77
2022-10-18T00:18:02.169Z,63.65
2022-10-18T00:20:29.572Z,63.50
2022-10-18T00:22:57.130Z,63.36
2022-10-18T00:25:24.389Z,63.14
2022-10-18T00:27:53.004Z,63.61
2022-10-18T00:30:20.277Z,63.38
2022-10-18T00:32:47.578Z,63.09
2022-10-18T00:35:14.957Z,63.84
2022-10-18T00:37:42.285Z,63.24
2022-10-18T00:40:10.953Z,63.74
2022-10-18T00:42:38.762Z,63.46
2022-10-18T00:45:26.162Z,63.80
2022-10-18T00:47:59.901Z,63.68
2022-10-18T00:50:32.306Z,63.51
2022-10-18T00:53:04.803Z,63.06
2022-10-18T00:55:33.771Z,63.71
2022-10-18T00:58:03.601Z,63.29
2022-10-18T01:00:32.742Z,63.87
2022-10-18T01:03:00.215Z,63.92
2022-10-18T01:05:30.178Z,63.94
2022-10-18T01:08:24.044Z,63.77
2022-10-18T01:11:07.511Z,63.93
2022-10-18T01:13:56.622Z,63.77
2022-10-18T01:16:34.440Z,64.28
2022-10-18T01:19:12.116Z,63.92
2022-10-18T01:21:48.635Z,64.36
2022-10-18T01:24:55.440Z,64.00
2022-10-18T01:27:49.492Z,64.71
2022-10-18T01:30:39.231Z,64.18
2022-10-18T01:33:21.865Z,64.50
2022-10-18T01:35:57.199Z,63.88
2022-10-18T01:38:28.749Z,64.08
2022-10-18T01:40:58.158Z,63.70
2022-10-18T01:43:29.220Z,64.08
2022-10-18T01:46:00.614Z,63.64
2022-10-18T01:48:30.663Z,64.33
2022-10-18T01:50:58.450Z,63.90
2022-10-18T01:53:30.743Z,64.23
2022-10-18T01:56:20.417Z,64.03
2022-10-18T01:59:13.726Z,64.05
2022-10-18T02:01:56.085Z,64.30
2022-10-18T02:04:35.330Z,64.13
2022-10-18T02:07:17.506Z,63.97
2022-10-18T02:09:52.617Z,63.70
2022-10-18T02:12:22.774Z,64.04
2022-10-18T02:14:51.942Z,64.10
2022-10-18T02:17:25.949Z,63.64
2022-10-18T02:19:56.404Z,63.98
2022-10-18T02:22:31.523Z,64.32
2022-10-18T02:25:03.789Z,64.10
2022-10-18T02:27:31.204Z,64.52
2022-10-18T02:29:59.254Z,64.10
2022-10-18T02:32:35.267Z,64.20
2022-10-18T02:35:08.963Z,64.08
2022-10-18T02:37:39.970Z,64.14
2022-10-18T02:40:10.287Z,64.00
2022-10-18T02:42:40.435Z,64.46
2022-10-18T02:45:08.348Z,64.46
2022-10-18T02:47:37.039Z,64.14
2022-10-18T02:50:05.251Z,64.44
2022-10-18T02:52:32.538Z,63.92
2022-10-18T02:54:59.793Z,63.74
2022-10-18T02:57:27.183Z,63.56
2022-10-18T02:59:54.406Z,64.16
2022-10-18T03:02:21.974Z,64.00
2022-10-18T03:04:50.674Z,64.07
2022-10-18T03:07:17.958Z,63.86
2022-10-18T03:09:45.310Z,64.42
2022-10-18T03:12:12.951Z,64.12
2022-10-18T03:14:40.210Z,63.71
2022-10-18T03:17:07.585Z,64.09
2022-10-18T03:19:34.950Z,64.11
2022-10-18T03:22:03.534Z,64.36
2022-10-18T03:24:30.818Z,63.76
2022-10-18T03:26:58.047Z,64.17
2022-10-18T03:29:25.496Z,64.20
2022-10-18T03:31:52.818Z,64.32
2022-10-18T03:34:20.081Z,64.43
2022-10-18T03:36:47.405Z,63.74
2022-10-18T03:39:16.130Z,63.66
2022-10-18T03:41:43.408Z,64.16
2022-10-18T03:44:10.744Z,63.99
2022-10-18T03:46:37.978Z,64.30
2022-10-18T03:49:05.259Z,63.76
2022-10-18T03:51:32.597Z,63.86
2022-10-18T03:53:59.970Z,64.25
2022-10-18T03:56:28.594Z,64.29
2022-10-18T03:58:57.146Z,64.40
2022-10-18T04:01:24.514Z,64.45
2022-10-18T04:03:51.892Z,63.91
2022-10-18T04:06:19.125Z,63.90
2022-10-18T04:08:46.403Z,64.47
2022-10-18T04:11:13.941Z,64.22
2022-10-18T04:13:42.624Z,64.16
2022-10-18T04:16:10.982Z,64.29
2022-10-18T04:18:38.373Z,64.02
2022-10-18T04:21:06.069Z,64.01
2022-10-18T04:23:36.331Z,64.25
2022-10-18T04:26:06.848Z,64.64
2022-10-18T04:28:34.966Z,64.88
2022-10-18T04:31:03.636Z,64.33
2022-10-18T04:33:30.866Z,64.98
2022-10-18T04:35:58.285Z,64.64
2022-10-18T04:38:25.621Z,64.61
2022-10-18T04:40:52.921Z,64.34
2022-10-18T04:43:20.199Z,64.32
2022-10-18T04:45:48.201Z,64.27
2022-10-18T04:48:17.478Z,64.66
2022-10-18T04:50:47.503Z,64.69
2022-10-18T04:53:15.251Z,64.56
2022-10-18T04:55:45.221Z,64.67
2022-10-18T04:58:12.856Z,64.06
2022-10-18T05:00:41.154Z,64.62
2022-10-18T05:03:09.267Z,64.81
2022-10-18T05:06:00.256Z,64.36
2022-10-18T05:08:25.334Z,64.92
2022-10-18T05:10:52.684Z,64.63
2022-10-18T05:13:20.178Z,64.70
2022-10-18T05:15:47.819Z,64.60
2022-10-18T05:18:15.110Z,63.97
2022-10-18T05:20:43.790Z,63.97
2022-10-18T05:23:11.078Z,64.45
2022-10-18T05:25:39.534Z,63.91
2022-10-18T05:28:10.860Z,63.97
2022-10-18T05:30:48.463Z,63.71
2022-10-18T05:33:15.712Z,63.95
2022-10-18T05:35:44.372Z,63.79
2022-10-18T05:38:11.638Z,63.83
2022-10-18T05:40:39.666Z,64.36
2022-10-18T05:43:06.898Z,64.49
2022-10-18T05:45:34.212Z,64.49
2022-10-18T05:48:01.567Z,64.62
2022-10-18T05:50:28.825Z,64.13
2022-10-18T05:53:06.898Z,64.44
2022-10-18T05:55:39.967Z,64.36
2022-10-18T05:58:07.254Z,64.18
2022-10-18T06:00:34.616Z,64.15
2022-10-18T06:03:01.883Z,64.09
2022-10-18T06:05:29.245Z,64.10
2022-10-18T06:07:58.128Z,63.69
2022-10-18T06:10:25.771Z,63.62
2022-10-18T06:12:53.332Z,63.65
2022-10-18T06:15:20.732Z,64.03
2022-10-18T06:17:48.112Z,64.15
2022-10-18T06:20:15.661Z,64.11
2022-10-18T06:22:42.963Z,64.27
2022-10-18T06:25:11.689Z,64.08
2022-10-18T06:27:39.027Z,63.93
2022-10-18T06:30:08.460Z,63.42
2022-10-18T06:32:35.747Z,63.71
2022-10-18T06:35:03.157Z,63.81
2022-10-18T06:37:30.987Z,63.71
2022-10-18T06:39:58.430Z,63.83
2022-10-18T06:42:27.200Z,63.67
2022-10-18T06:44:54.447Z,63.88
2022-10-18T06:47:21.753Z,64.12
2022-10-18T06:49:49.052Z,63.68
2022-10-18T06:52:17.545Z,63.34
2022-10-18T06:54:45.475Z,63.44
2022-10-18T06:57:12.829Z,63.07
2022-10-18T06:59:41.438Z,63.21
2022-10-18T07:02:14.487Z,63.19
2022-10-18T07:04:41.982Z,63.54
2022-10-18T07:07:09.510Z,63.28
2022-10-18T07:09:36.918Z,63.45
2022-10-18T07:12:05.145Z,63.44
2022-10-18T07:14:32.414Z,63.95
2022-10-18T07:17:01.484Z,63.19
2022-10-18T07:19:28.942Z,63.63
2022-10-18T07:21:56.280Z,62.99
2022-10-18T07:24:23.554Z,63.38
2022-10-18T07:26:50.856Z,63.37
2022-10-18T07:29:18.118Z,63.13
2022-10-18T07:31:45.362Z,62.69
2022-10-18T07:34:14.908Z,62.87
2022-10-18T07:36:42.273Z,62.79
2022-10-18T07:39:10.359Z,62.22
2022-10-18T07:41:38.093Z,61.85
2022-10-18T07:44:05.963Z,61.86
2022-10-18T07:46:33.513Z,61.62
2022-10-18T07:49:00.940Z,61.91
2022-10-18T07:51:32.674Z,61.81
2022-10-18T07:54:00.315Z,62.19
2022-10-18T07:56:27.661Z,62.32
2022-10-18T07:58:57.061Z,61.73
2022-10-18T08:01:26.035Z,61.99
2022-10-18T08:03:53.931Z,62.28
2022-10-18T08:06:23.281Z,62.28
2022-10-18T08:08:52.786Z,62.17
2022-10-18T08:11:22.487Z,61.76
2022-10-18T08:13:50.638Z,61.74
2022-10-18T08:16:20.471Z,61.08
2022-10-18T08:18:47.954Z,60.97
2022-10-18T08:21:17.264Z,61.36
2022-10-18T08:23:45.052Z,60.99
2022-10-18T08:26:17.618Z,61.17
2022-10-18T08:28:53.718Z,60.65
2022-10-18T08:31:26.069Z,60.55
2022-10-18T08:33:57.152Z,60.50
2022-10-18T08:36:24.888Z,60.00
2022-10-18T08:38:52.261Z,59.39
2022-10-18T08:42:16.098Z,59.19
2022-10-18T08:44:48.374Z,59.12
2022-10-18T08:47:20.973Z,59.04
2022-10-18T08:49:54.286Z,58.31
2022-10-18T08:52:34.757Z,57.29
2022-10-18T08:55:10.430Z,55.97
2022-10-18T08:57:39.125Z,55.51
2022-10-18T09:00:16.391Z,54.80
2022-10-18T09:03:05.371Z,54.94
2022-10-18T09:05:45.172Z,54.98
2022-10-18T09:08:50.564Z,54.34
2022-10-18T09:11:44.414Z,55.10
2022-10-18T09:15:03.906Z,55.45
2022-10-18T09:17:50.180Z,54.59
2022-10-18T09:20:37.700Z,53.37
2022-10-18T09:23:22.863Z,53.11
2022-10-18T09:26:01.561Z,51.15
2022-10-18T09:28:44.947Z,49.06
2022-10-18T09:31:22.074Z,47.19
2022-10-18T09:33:58.167Z,45.24
2022-10-18T09:36:35.619Z,43.34
2022-10-18T09:39:10.961Z,41.63
2022-10-18T09:41:47.408Z,41.17
2022-10-18T09:44:22.176Z,40.90
2022-10-18T09:46:56.667Z,40.81
2022-10-18T09:49:31.891Z,39.70
2022-10-18T09:52:07.414Z,39.87
2022-10-18T09:54:44.021Z,40.61
2022-10-18T09:57:21.753Z,41.12
2022-10-18T09:59:50.755Z,41.16
2022-10-18T10:02:22.000Z,41.47
2022-10-18T10:04:52.172Z,41.76
2022-10-18T10:07:23.954Z,41.52
2022-10-18T10:09:59.588Z,41.14
2022-10-18T10:12:31.464Z,41.15
2022-10-18T10:15:18.192Z,40.39
2022-10-18T10:17:54.673Z,41.36
2022-10-18T10:20:29.171Z,42.01
2022-10-18T10:23:14.199Z,42.17
2022-10-18T10:25:42.958Z,42.27
2022-10-18T10:28:18.353Z,42.28
2022-10-18T10:30:45.841Z,42.75
2022-10-18T10:33:37.003Z,43.15
2022-10-18T10:36:17.088Z,44.75
2022-10-18T10:38:44.718Z,44.07
2022-10-18T10:41:21.525Z,45.07
2022-10-18T10:43:50.595Z,45.45
2022-10-18T10:46:23.387Z,45.87
2022-10-18T10:49:08.460Z,46.88
2022-10-18T10:51:44.485Z,46.76
2022-10-18T10:54:16.917Z,47.27
2022-10-18T10:56:58.055Z,47.22
2022-10-18T10:59:28.915Z,46.63
2022-10-18T11:02:21.956Z,45.42
2022-10-18T11:04:51.556Z,43.76
2022-10-18T11:07:27.890Z,41.43
2022-10-18T11:10:06.433Z,39.15
2022-10-18T11:12:39.801Z,37.27
2022-10-18T11:15:21.296Z,37.10
2022-10-18T11:18:04.415Z,37.01
2022-10-18T11:20:38.545Z,37.05
2022-10-18T11:23:11.444Z,36.64
2022-10-18T11:26:03.090Z,37.75
2022-10-18T11:28:55.339Z,38.67
2022-10-18T11:31:32.605Z,39.25
2022-10-18T11:34:21.526Z,39.65
2022-10-18T11:37:26.695Z,40.16
2022-10-18T11:40:07.170Z,41.68
2022-10-18T11:42:47.546Z,41.27
2022-10-18T11:45:32.285Z,42.34
2022-10-18T11:48:18.244Z,42.55
2022-10-18T11:50:54.835Z,43.34
2022-10-18T11:53:38.016Z,43.23
2022-10-18T11:56:25.172Z,44.11
2022-10-18T11:59:15.857Z,43.71
2022-10-18T12:02:03.774Z,44.03
2022-10-18T12:04:49.005Z,44.19
2022-10-18T12:07:32.509Z,43.37
2022-10-18T12:10:03.355Z,43.65
2022-10-18T12:12:38.844Z,43.29
2022-10-18T12:15:18.144Z,43.37
2022-10-18T12:17:50.486Z,42.70
2022-10-18T12:20:27.145Z,42.35
2022-10-18T12:23:02.802Z,41.67
2022-10-18T12:25:35.608Z,42.15
2022-10-18T12:28:16.275Z,42.36
2022-10-18T12:30:57.780Z,42.57
2022-10-18T12:33:35.442Z,41.13
2022-10-18T12:36:24.317Z,39.43
2022-10-18T12:38:57.334Z,38.13
2022-10-18T12:41:29.196Z,38.19
2022-10-18T12:44:04.868Z,37.60
2022-10-18T12:46:48.214Z,37.74
2022-10-18T12:49:24.388Z,37.95
2022-10-18T12:51:58.061Z,38.47
2022-10-18T12:54:29.550Z,39.33
2022-10-18T12:56:58.083Z,37.83
2022-10-18T12:59:50.968Z,38.32
2022-10-18T13:02:31.119Z,38.11
2022-10-18T13:05:00.649Z,37.92
2022-10-18T13:07:43.095Z,37.22
2022-10-18T13:10:36.004Z,37.43
2022-10-18T13:13:39.820Z,38.01
2022-10-18T13:16:36.587Z,38.69
2022-10-18T13:19:23.125Z,38.71
2022-10-18T13:22:12.506Z,38.94
2022-10-18T13:24:46.930Z,39.23
2022-10-18T13:27:35.880Z,39.28
2022-10-18T13:30:31.910Z,39.23
2022-10-18T13:33:25.116Z,40.04
2022-10-18T13:35:57.362Z,40.02
2022-10-18T13:38:47.306Z,39.51
2022-10-18T13:41:19.447Z,39.78
2022-10-18T13:44:11.542Z,40.36
2022-10-18T13:47:16.300Z,40.57
2022-10-18T13:50:26.887Z,40.54
2022-10-18T13:53:41.863Z,40.93
2022-10-18T13:56:33.551Z,40.65
2022-10-18T14:02:51.571Z,40.98
2022-10-18T14:05:50.057Z,41.28
2022-10-18T14:08:27.135Z,41.73
2022-10-18T14:11:04.360Z,41.78
2022-10-18T14:13:42.675Z,41.47
2022-10-18T14:16:30.882Z,41.54
2022-10-18T14:19:17.751Z,41.53
2022-10-18T14:21:56.714Z,41.73
2022-10-18T14:24:27.619Z,41.81
2022-10-18T14:27:17.836Z,41.69
2022-10-18T14:29:46.240Z,41.76
2022-10-18T14:32:26.234Z,42.02
2022-10-18T14:35:09.177Z,42.49
2022-10-18T14:37:43.791Z,42.75
2022-10-18T14:40:32.190Z,43.24
2022-10-18T14:43:04.967Z,43.01
2022-10-18T14:45:32.249Z,43.44
2022-10-18T14:48:14.236Z,43.79
2022-10-18T14:50:44.465Z,43.91
2022-10-18T14:53:25.089Z,43.94
2022-10-18T14:56:00.675Z,44.52
2022-10-18T14:58:28.715Z,44.39
2022-10-18T15:00:56.490Z,44.19
2022-10-18T15:03:24.580Z,44.17
2022-10-18T15:05:55.547Z,44.14
2022-10-18T15:08:26.909Z,44.22
2022-10-18T15:10:54.838Z,44.30
2022-10-18T15:13:23.124Z,44.31
2022-10-18T15:15:51.202Z,44.03
2022-10-18T15:18:23.157Z,43.89
2022-10-18T15:21:10.709Z,43.63
2022-10-18T15:23:39.848Z,43.64
2022-10-18T15:26:15.137Z,43.70
2022-10-18T15:28:52.449Z,43.64
2022-10-18T15:31:26.534Z,43.88
2022-10-18T15:34:08.337Z,44.33
2022-10-18T15:36:36.193Z,44.35
2022-10-18T15:39:16.378Z,44.73
2022-10-18T15:41:50.242Z,44.69
2022-10-18T15:44:26.343Z,45.21
2022-10-18T15:46:57.043Z,44.70
2022-10-18T15:50:00.795Z,44.79
2022-10-18T15:52:39.321Z,44.69
2022-10-18T15:55:57.720Z,45.19
2022-10-18T15:58:27.623Z,45.04
2022-10-18T16:00:59.153Z,44.91
2022-10-18T16:03:27.760Z,45.14
2022-10-18T16:06:02.797Z,45.08
2022-10-18T16:08:31.894Z,45.18
2022-10-18T16:11:00.742Z,45.52
2022-10-18T16:13:28.378Z,45.59
2022-10-18T16:15:56.039Z,45.66
2022-10-18T16:18:25.873Z,45.67
2022-10-18T16:20:53.843Z,46.22
2022-10-18T16:23:23.909Z,46.13
2022-10-18T16:25:51.728Z,45.55
2022-10-18T16:28:23.792Z,45.24
2022-10-18T16:30:57.548Z,45.64
2022-10-18T16:33:25.832Z,45.81
2022-10-18T16:35:54.587Z,45.86
2022-10-18T16:38:32.828Z,45.67
2022-10-18T16:41:04.221Z,45.48
2022-10-18T16:43:34.981Z,45.94
2022-10-18T16:46:03.783Z,46.31
2022-10-18T16:48:31.179Z,46.64
2022-10-18T16:50:59.201Z,46.49
2022-10-18T16:53:41.625Z,46.13
2022-10-18T16:56:15.914Z,46.66
2022-10-18T16:58:45.976Z,46.31
2022-10-18T17:01:19.828Z,46.69
2022-10-18T17:03:48.538Z,46.93
2022-10-18T17:06:18.704Z,47.15
2022-10-18T17:08:46.019Z,47.36
2022-10-18T17:11:15.136Z,47.02
2022-10-18T17:13:45.159Z,47.10
2022-10-18T17:16:24.071Z,47.01
2022-10-18T17:18:52.108Z,47.64
2022-10-18T17:21:20.915Z,47.31
2022-10-18T17:23:49.054Z,47.23
2022-10-18T17:26:37.095Z,47.53
2022-10-18T17:29:08.356Z,47.60
2022-10-18T17:31:36.316Z,47.75
2022-10-18T17:34:04.250Z,47.35
2022-10-18T17:36:33.542Z,47.58
2022-10-18T17:39:00.886Z,47.63
2022-10-18T17:41:28.242Z,47.46
2022-10-18T17:43:55.526Z,47.67
2022-10-18T17:46:24.346Z,47.24
2022-10-18T17:48:51.890Z,47.84
2022-10-18T17:51:19.413Z,47.57
2022-10-18T17:53:47.154Z,47.94
2022-10-18T17:56:15.668Z,48.01
2022-10-18T17:58:43.663Z,48.07
2022-10-18T18:01:13.701Z,47.40
2022-10-18T18:03:42.950Z,47.34
2022-10-18T18:06:19.376Z,47.41
2022-10-18T18:08:48.455Z,47.64
2022-10-18T18:11:17.579Z,47.58
2022-10-18T18:13:44.976Z,48.11
2022-10-18T18:16:16.295Z,47.51
2022-10-18T18:18:46.410Z,47.80
2022-10-18T18:21:14.167Z,47.92
2022-10-18T18:23:41.522Z,47.56
2022-10-18T18:26:08.875Z,47.38
2022-10-18T18:28:36.709Z,47.26
2022-10-18T18:31:07.378Z,46.95
2022-10-18T18:33:35.116Z,47.41
2022-10-18T18:36:05.316Z,47.00
2022-10-18T18:38:34.957Z,47.37
2022-10-18T18:41:07.634Z,46.73
2022-10-18T18:43:35.899Z,47.16
2022-10-18T18:46:03.708Z,46.76
2022-10-18T18:48:33.801Z,47.29
2022-10-18T18:51:01.375Z,47.10
2022-10-18T18:53:30.489Z,46.46
2022-10-18T18:56:07.169Z,46.14
2022-10-18T18:58:37.774Z,46.18
2022-10-18T19:04:00.218Z,45.47
2022-10-18T19:06:30.565Z,46.04
2022-10-18T19:09:01.513Z,45.78
2022-10-18T19:11:32.596Z,45.61
2022-10-18T19:14:00.606Z,45.52
2022-10-18T19:16:30.667Z,45.56
2022-10-18T19:19:01.975Z,46.07
2022-10-18T19:21:32.619Z,45.64
2022-10-18T19:24:00.108Z,45.27
2022-10-18T19:26:35.145Z,45.47
2022-10-18T19:29:07.551Z,44.98
2022-10-18T19:31:35.673Z,45.75
2022-10-18T19:34:07.510Z,45.45
2022-10-18T19:36:36.079Z,45.84
2022-10-18T19:39:05.777Z,45.64
2022-10-18T19:41:33.202Z,45.35
2022-10-18T19:44:00.558Z,46.11
2022-10-18T19:46:27.877Z,45.51
2022-10-18T19:48:55.149Z,45.68
2022-10-18T19:51:27.039Z,45.85
2022-10-18T19:53:57.459Z,45.65
2022-10-18T19:56:26.452Z,45.63
2022-10-18T19:58:54.534Z,46.08
2022-10-18T20:01:21.902Z,45.99
2022-10-18T20:03:49.415Z,46.03
2022-10-18T20:06:16.923Z,45.85
2022-10-18T20:08:45.939Z,45.61
2022-10-18T20:11:16.969Z,45.65
2022-10-18T20:13:44.439Z,45.98
2022-10-18T20:16:14.530Z,46.08
2022-10-18T20:18:44.913Z,46.41
2022-10-18T20:21:16.678Z,46.00
2022-10-18T20:23:45.758Z,45.88
2022-10-18T20:26:18.166Z,46.32
2022-10-18T20:28:48.946Z,46.32
2022-10-18T20:31:18.996Z,46.55
2022-10-18T20:33:48.194Z,46.24
2022-10-18T20:36:18.055Z,45.90
2022-10-18T20:38:48.798Z,45.85
2022-10-18T20:41:19.338Z,46.17
2022-10-18T20:43:52.147Z,45.88
2022-10-18T20:46:20.266Z,46.18
2022-10-18T20:48:49.195Z,46.05
2022-10-18T20:51:17.206Z,46.18
2022-10-18T20:53:46.340Z,46.25
2022-10-18T20:56:16.333Z,45.99
2022-10-18T20:58:45.753Z,45.74
2022-10-18T21:01:16.589Z,45.50
2022-10-18T21:03:46.451Z,45.65
2022-10-18T21:06:17.615Z,45.38
2022-10-18T21:08:47.096Z,45.40
2022-10-18T21:11:15.328Z,45.69
2022-10-18T21:13:42.652Z,45.59
2022-10-18T21:16:09.991Z,45.97
2022-10-18T21:18:40.278Z,45.49
2022-10-18T21:21:10.317Z,45.93
2022-10-18T21:23:38.063Z,46.19
2022-10-18T21:26:08.043Z,45.86
2022-10-18T21:28:35.775Z,45.60
2022-10-18T21:31:12.757Z,45.64
2022-10-18T21:33:40.993Z,45.44
2022-10-18T21:36:08.911Z,45.59
2022-10-18T21:38:37.097Z,46.07
2022-10-18T21:41:11.094Z,45.48
2022-10-18T21:43:41.455Z,45.70
2022-10-18T21:46:10.208Z,45.60
2022-10-18T21:48:38.729Z,46.11
2022-10-18T21:51:08.202Z,46.05
2022-10-18T21:53:36.232Z,46.39
2022-10-18T21:56:11.047Z,46.99
2022-10-18T21:58:39.312Z,46.86
2022-10-18T22:01:08.477Z,46.91
2022-10-18T22:03:36.295Z,46.91
2022-10-18T22:06:13.662Z,47.13
2022-10-18T22:08:42.077Z,47.91
2022-10-18T22:11:12.996Z,47.83
2022-10-18T22:13:41.422Z,48.16
2022-10-18T22:16:12.053Z,48.61
2022-10-18T22:18:39.489Z,48.57
2022-10-18T22:21:10.017Z,48.89
2022-10-18T22:23:40.290Z,49.05
2022-10-18T22:26:12.338Z,49.45
2022-10-18T22:28:40.712Z,49.69
2022-10-18T22:31:15.025Z,49.84
2022-10-18T22:33:42.679Z,49.83
2022-10-18T22:36:10.053Z,49.96
2022-10-18T22:38:37.860Z,50.00
2022-10-18T22:41:06.963Z,49.94
2022-10-18T22:43:36.509Z,50.28
2022-10-18T22:46:05.855Z,50.14
2022-10-18T22:48:33.381Z,50.60
2022-10-18T22:51:01.364Z,50.45
2022-10-18T22:53:29.233Z,50.47
2022-10-18T22:55:56.562Z,51.00
2022-10-18T22:58:23.786Z,51.18
2022-10-18T23:01:01.544Z,51.22
2022-10-18T23:03:28.933Z,51.33
2022-10-18T23:05:57.129Z,51.38
2022-10-18T23:08:24.752Z,51.49
2022-10-18T23:10:57.134Z,51.65
2022-10-18T23:13:26.642Z,51.71
2022-10-18T23:16:04.472Z,51.56
2022-10-18T23:18:33.247Z,51.63
2022-10-18T23:21:03.130Z,51.90
2022-10-18T23:23:34.873Z,51.73
2022-10-18T23:26:04.639Z,51.71
2022-10-18T23:28:35.370Z,51.83
2022-10-18T23:31:09.060Z,51.95
2022-10-18T23:33:36.741Z,51.87
2022-10-18T23:36:05.561Z,52.11
2022-10-18T23:38:33.642Z,52.04
2022-10-18T23:41:00.940Z,52.00
2022-10-18T23:43:28.239Z,52.12
2022-10-18T23:45:55.532Z,51.88
2022-10-18T23:48:24.531Z,51.92
2022-10-18T23:50:52.235Z,51.95
2022-10-18T23:53:20.031Z,52.05
2022-10-18T23:55:53.748Z,52.05
2022-10-18T23:58:21.650Z,51.73
